Time;durP1;ratioP1;P1;durP2;ratioP2;P2;SDS_P1;SDS_P2;PMS_P1;PMS_P2;Temp;Humidity;BMP_temperature;BMP_pressure;BME280_temperature;BME280_humidity;BME280_pressure;Samples;Min_cycle;Max_cycle;Signal;HPM_P1;HPM_P2
2020/12/14 00:02:14;;;;;;;3.83;1.23;;;7.00;99.90;;;;;;4973008;28;20221;-76
2020/12/14 00:04:40;;;;;;;2.97;1.40;;;7.00;99.90;;;;;;4974720;28;20293;-76
2020/12/14 00:07:06;;;;;;;3.20;1.35;;;7.10;99.90;;;;;;4972322;28;20211;-76
2020/12/14 00:09:32;;;;;;;2.75;1.60;;;7.10;99.90;;;;;;4974912;28;20175;-76
2020/12/14 00:11:59;;;;;;;3.27;1.83;;;7.20;99.90;;;;;;4974141;28;20237;-76
2020/12/14 00:14:25;;;;;;;4.53;2.30;;;7.20;99.90;;;;;;4974854;28;20414;-76
2020/12/14 00:16:51;;;;;;;5.93;1.87;;;7.20;99.90;;;;;;4967427;28;20238;-76
2020/12/14 00:19:17;;;;;;;7.00;2.00;;;7.20;99.90;;;;;;4967679;28;20198;-76
2020/12/14 00:21:42;;;;;;;5.60;2.47;;;7.30;99.90;;;;;;4974304;28;20215;-76
2020/12/14 00:24:08;;;;;;;2.23;1.70;;;7.20;99.90;;;;;;4974232;28;20203;-76
2020/12/14 00:26:34;;;;;;;5.67;2.97;;;7.20;99.90;;;;;;4964709;28;20266;-76
2020/12/14 00:28:59;;;;;;;4.77;1.93;;;7.20;99.90;;;;;;4965178;28;20262;-76
2020/12/14 00:31:25;;;;;;;5.07;2.03;;;7.20;99.90;;;;;;4973966;28;20207;-76
2020/12/14 00:33:51;;;;;;;5.00;1.80;;;7.20;99.90;;;;;;4974469;28;20262;-77
2020/12/14 00:36:17;;;;;;;5.20;2.10;;;7.30;99.90;;;;;;4963276;28;20759;-76
2020/12/14 00:38:42;;;;;;;7.87;2.30;;;7.30;99.90;;;;;;4969466;28;20765;-76
2020/12/14 00:41:15;;;;;;;2.17;1.60;;;7.20;99.90;;;;;;4973755;28;20210;-76
2020/12/14 00:43:41;;;;;;;5.90;1.95;;;7.20;99.90;;;;;;4974000;28;20412;-76
2020/12/14 00:46:11;;;;;;;5.47;1.90;;;7.30;99.90;;;;;;4957677;28;20642;-76
2020/12/14 00:48:37;;;;;;;4.93;2.20;;;7.40;99.90;;;;;;4973889;28;20642;-76
2020/12/14 00:51:02;;;;;;;3.37;1.73;;;7.40;99.90;;;;;;4973588;28;20247;-76
2020/12/14 00:53:28;;;;;;;2.60;2.00;;;7.40;99.90;;;;;;4973381;28;20234;-76
2020/12/14 00:55:54;;;;;;;3.50;2.00;;;7.30;99.90;;;;;;4971240;28;20183;-77
2020/12/14 00:58:19;;;;;;;4.77;1.87;;;7.40;99.90;;;;;;4973544;28;20215;-77
2020/12/14 01:00:45;;;;;;;5.23;2.53;;;7.40;99.90;;;;;;4975949;28;20183;-76
2020/12/14 01:03:11;;;;;;;5.47;1.80;;;7.40;99.90;;;;;;4973274;28;20302;-76
2020/12/14 01:05:36;;;;;;;5.70;1.90;;;7.40;99.90;;;;;;4966302;28;20435;-77
2020/12/14 01:08:02;;;;;;;4.60;1.60;;;7.40;99.90;;;;;;4970718;28;20211;-77
2020/12/14 01:10:28;;;;;;;4.40;1.70;;;7.30;99.90;;;;;;4973608;28;20175;-77
2020/12/14 01:12:53;;;;;;;5.07;1.50;;;7.40;99.90;;;;;;4972956;28;20644;-76
2020/12/14 01:15:19;;;;;;;3.53;1.50;;;7.30;99.90;;;;;;4961822;28;20188;-77
2020/12/14 01:17:45;;;;;;;2.40;1.70;;;7.30;99.90;;;;;;4964637;28;20234;-76
2020/12/14 01:20:13;;;;;;;3.20;1.60;;;7.40;99.90;;;;;;4973745;28;20223;-76
2020/12/14 01:22:41;;;;;;;3.35;1.60;;;7.40;99.90;;;;;;4972975;28;20218;-76
2020/12/14 01:25:07;;;;;;;3.35;2.35;;;7.40;99.90;;;;;;4974161;28;20227;-76
2020/12/14 01:27:33;;;;;;;3.27;1.53;;;7.30;99.90;;;;;;4964241;28;20629;-76
2020/12/14 01:29:59;;;;;;;4.27;1.90;;;7.30;99.90;;;;;;4973295;28;20207;-77
2020/12/14 01:32:26;;;;;;;2.40;1.52;;;7.20;99.90;;;;;;4972342;28;20230;-76
2020/12/14 01:34:51;;;;;;;9.60;2.37;;;7.20;99.90;;;;;;4971723;28;20171;-76
2020/12/14 01:37:17;;;;;;;3.60;1.97;;;7.10;99.90;;;;;;4953472;28;20219;-77
2020/12/14 01:39:43;;;;;;;3.93;2.00;;;7.00;99.90;;;;;;4969521;28;20179;-76
2020/12/14 01:42:08;;;;;;;4.70;1.90;;;6.90;99.90;;;;;;4972453;28;20240;-76
2020/12/14 01:44:34;;;;;;;2.93;1.53;;;7.00;99.90;;;;;;4969436;28;20192;-76
2020/12/14 01:47:02;;;;;;;3.67;1.83;;;7.00;99.90;;;;;;4962246;28;20208;-77
2020/12/14 01:49:29;;;;;;;5.22;2.10;;;6.90;99.90;;;;;;4971680;28;20191;-76
2020/12/14 01:51:56;;;;;;;3.03;2.72;;;7.00;99.90;;;;;;4972197;28;20633;-76
2020/12/14 01:54:36;;;;;;;1.55;1.45;;;6.90;99.90;;;;;;4971378;28;20176;-76
2020/12/14 01:57:02;;;;;;;1.95;1.10;;;6.90;99.90;;;;;;4968280;28;20210;-76
2020/12/14 01:59:28;;;;;;;2.40;1.73;;;6.90;99.90;;;;;;4974755;28;20167;-75
2020/12/14 02:01:53;;;;;;;4.20;1.50;;;6.90;99.90;;;;;;4972107;28;20226;-76
2020/12/14 02:04:19;;;;;;;2.03;1.40;;;6.90;99.90;;;;;;4971182;28;20207;-76
2020/12/14 02:06:45;;;;;;;2.30;1.43;;;6.90;99.90;;;;;;4971339;28;20219;-76
2020/12/14 02:09:11;;;;;;;2.00;1.13;;;6.90;99.90;;;;;;4972724;28;20167;-76
2020/12/14 02:11:36;;;;;;;1.77;1.30;;;6.90;99.90;;;;;;4971942;28;20987;-76
2020/12/14 02:14:02;;;;;;;4.33;1.33;;;6.90;99.90;;;;;;4972708;28;20734;-75
2020/12/14 02:16:28;;;;;;;2.93;1.67;;;6.90;99.90;;;;;;4965373;28;20450;-76
2020/12/14 02:18:54;;;;;;;6.30;1.60;;;6.90;99.90;;;;;;4971717;28;20414;-76
2020/12/14 02:21:19;;;;;;;5.23;1.80;;;6.80;99.90;;;;;;4972598;28;20227;-77
2020/12/14 02:23:45;;;;;;;2.93;1.83;;;6.80;99.90;;;;;;4972348;28;20618;-76
2020/12/14 02:26:11;;;;;;;2.33;1.60;;;6.80;99.90;;;;;;4967076;28;20573;-76
2020/12/14 02:28:37;;;;;;;2.13;1.57;;;6.70;99.90;;;;;;4968219;28;20171;-76
2020/12/14 02:31:04;;;;;;;3.65;2.13;;;6.70;99.90;;;;;;4971729;28;20615;-77
2020/12/14 02:33:30;;;;;;;2.50;1.80;;;6.70;99.90;;;;;;4972307;28;20677;-78
2020/12/14 02:35:55;;;;;;;1.60;1.50;;;6.70;99.90;;;;;;4963845;28;20230;-76
2020/12/14 02:38:22;;;;;;;3.33;1.67;;;6.60;99.90;;;;;;4980435;28;20450;-76
2020/12/14 02:40:48;;;;;;;4.97;2.15;;;6.60;99.90;;;;;;4972490;28;20422;-76
2020/12/14 02:43:14;;;;;;;3.47;2.20;;;6.60;99.90;;;;;;4970473;28;20211;-76
2020/12/14 02:45:41;;;;;;;2.10;1.90;;;6.60;99.90;;;;;;4969494;28;20246;-77
2020/12/14 02:48:07;;;;;;;1.60;1.50;;;6.60;99.90;;;;;;4964601;28;20545;-76
2020/12/14 02:50:35;;;;;;;2.55;2.10;;;6.60;99.90;;;;;;4972380;28;20697;-76
2020/12/14 02:53:04;;;;;;;4.70;1.95;;;6.60;99.90;;;;;;4971982;28;20250;-76
2020/12/14 02:55:30;;;;;;;2.00;1.73;;;6.50;99.90;;;;;;4964377;28;20223;-76
2020/12/14 02:57:56;;;;;;;4.60;2.40;;;6.50;99.90;;;;;;4963486;28;20326;-77
2020/12/14 03:00:22;;;;;;;3.83;1.90;;;6.40;99.90;;;;;;4974148;28;20693;-76
2020/12/14 03:02:48;;;;;;;2.45;1.73;;;6.40;99.90;;;;;;4971576;28;20221;-77
2020/12/14 03:05:14;;;;;;;2.17;1.63;;;6.40;99.90;;;;;;4968636;28;20595;-76
2020/12/14 03:07:40;;;;;;;2.33;1.83;;;6.40;99.90;;;;;;4966885;28;20219;-76
2020/12/14 03:10:05;;;;;;;2.60;1.70;;;6.50;99.90;;;;;;4972601;28;20594;-76
2020/12/14 03:12:34;;;;;;;3.10;2.23;;;6.50;99.90;;;;;;4971713;28;20219;-76
2020/12/14 03:15:00;;;;;;;1.80;1.70;;;6.50;99.90;;;;;;4966869;28;20587;-76
2020/12/14 03:17:26;;;;;;;2.55;1.98;;;6.50;99.90;;;;;;4968295;28;20211;-77
2020/12/14 03:19:52;;;;;;;3.67;1.88;;;6.40;99.90;;;;;;4970529;28;20183;-76
2020/12/14 03:22:17;;;;;;;2.97;1.50;;;6.40;99.90;;;;;;4971560;28;20218;-77
2020/12/14 03:24:43;;;;;;;9.03;2.90;;;6.40;99.90;;;;;;4971737;28;20207;-77
2020/12/14 03:27:09;;;;;;;1.50;1.40;;;6.40;99.90;;;;;;4963573;28;20210;-77
2020/12/14 03:29:34;;;;;;;1.47;1.33;;;6.50;99.90;;;;;;4972173;28;20167;-76
2020/12/14 03:32:00;;;;;;;1.67;1.57;;;6.40;99.90;;;;;;4982090;28;20245;-76
2020/12/14 03:34:26;;;;;;;1.87;1.77;;;6.50;99.90;;;;;;4974773;28;20237;-76
2020/12/14 03:36:51;;;;;;;5.63;1.57;;;6.50;99.90;;;;;;4966465;28;20216;-76
2020/12/14 03:39:17;;;;;;;3.27;2.17;;;6.50;99.90;;;;;;4974468;28;20511;-77
2020/12/14 03:41:43;;;;;;;1.70;1.50;;;6.40;99.90;;;;;;4974751;28;20528;-76
2020/12/14 03:44:08;;;;;;;2.70;1.80;;;6.50;99.90;;;;;;4967917;28;20682;-77
2020/12/14 03:46:35;;;;;;;3.03;1.73;;;6.50;99.90;;;;;;4962856;28;20298;-76
2020/12/14 03:49:01;;;;;;;2.45;1.67;;;6.50;99.90;;;;;;4973944;28;20179;-77
2020/12/14 03:51:29;;;;;;;2.30;1.70;;;6.50;99.90;;;;;;4974155;28;20618;-76
2020/12/14 03:53:54;;;;;;;2.85;1.52;;;6.50;99.90;;;;;;4973680;28;20171;-77
2020/12/14 03:56:24;;;;;;;1.87;1.70;;;6.50;99.90;;;;;;4966686;28;20191;-77
2020/12/14 03:58:50;;;;;;;6.10;2.05;;;6.50;99.90;;;;;;4974202;28;20593;-76
2020/12/14 04:01:23;;;;;;;3.83;1.90;;;6.50;99.90;;;;;;4959976;28;20199;-76
2020/12/14 04:03:50;;;;;;;2.10;1.70;;;6.50;99.90;;;;;;4975199;28;20273;-76
2020/12/14 04:06:23;;;;;;;1.90;1.48;;;6.50;99.90;;;;;;4973189;28;20171;-77
2020/12/14 04:08:49;;;;;;;2.03;1.83;;;6.50;99.90;;;;;;5000599;28;20175;-77
2020/12/14 04:11:16;;;;;;;1.48;1.38;;;6.40;99.90;;;;;;4972872;28;20191;-76
2020/12/14 04:13:42;;;;;;;2.00;1.60;;;6.40;99.90;;;;;;4974928;28;20649;-76
2020/12/14 04:16:08;;;;;;;2.83;1.50;;;6.50;99.90;;;;;;4967756;28;20188;-76
2020/12/14 04:18:35;;;;;;;2.15;1.83;;;6.50;99.90;;;;;;4974966;28;20218;-76
2020/12/14 04:21:00;;;;;;;1.77;1.65;;;6.60;99.90;;;;;;4975327;28;20218;-76
2020/12/14 04:23:26;;;;;;;1.93;1.50;;;6.60;99.90;;;;;;4974373;28;20246;-76
2020/12/14 04:25:52;;;;;;;6.37;1.57;;;6.60;99.90;;;;;;4968991;28;20176;-75
2020/12/14 04:28:17;;;;;;;2.40;1.70;;;6.70;99.90;;;;;;4967195;28;20210;-76
2020/12/14 04:30:43;;;;;;;1.50;1.40;;;6.70;99.90;;;;;;4974651;28;20179;-75
2020/12/14 04:33:09;;;;;;;3.50;1.70;;;6.70;99.90;;;;;;4973836;28;20309;-76
2020/12/14 04:35:34;;;;;;;2.70;1.63;;;6.70;99.90;;;;;;4968369;28;20750;-76
2020/12/14 04:38:00;;;;;;;3.00;1.40;;;6.60;99.90;;;;;;4965815;28;20254;-75
2020/12/14 04:40:30;;;;;;;1.63;1.43;;;6.60;99.90;;;;;;4972887;28;20184;-76
2020/12/14 04:43:00;;;;;;;2.10;1.38;;;6.50;99.90;;;;;;4972881;28;20241;-76
2020/12/14 04:45:27;;;;;;;3.03;1.50;;;6.60;99.90;;;;;;4972217;28;20287;-76
2020/12/14 04:47:57;;;;;;;1.40;1.30;;;6.60;99.90;;;;;;4964663;28;20211;-76
2020/12/14 04:50:24;;;;;;;2.38;1.60;;;6.50;99.90;;;;;;4974149;28;20241;-76
2020/12/14 04:52:51;;;;;;;3.78;0.90;;;6.60;99.90;;;;;;4973317;28;20215;-76
2020/12/14 04:55:22;;;;;;;1.75;1.13;;;6.60;99.90;;;;;;4966224;28;20535;-76
2020/12/14 04:57:48;;;;;;;1.67;1.50;;;6.60;99.90;;;;;;4975596;28;20207;-76
2020/12/14 05:00:15;;;;;;;1.58;1.40;;;6.60;99.90;;;;;;4974146;28;20175;-76
2020/12/14 05:02:41;;;;;;;3.65;1.67;;;6.70;99.90;;;;;;4973406;28;20317;-75
2020/12/14 05:05:11;;;;;;;1.30;1.10;;;6.70;99.90;;;;;;4961903;28;20702;-76
2020/12/14 05:07:41;;;;;;;2.95;1.20;;;6.70;99.90;;;;;;4965182;28;20211;-76
2020/12/14 05:10:08;;;;;;;2.25;1.52;;;6.60;99.90;;;;;;4974119;28;20167;-76
2020/12/14 05:12:42;;;;;;;1.90;1.52;;;6.60;99.90;;;;;;4972002;28;20215;-76
2020/12/14 05:15:27;;;;;;;1.40;1.15;;;6.60;99.90;;;;;;4962985;28;20171;-77
2020/12/14 05:18:15;;;;;;;1.63;1.50;;;6.60;99.90;;;;;;4964833;28;20250;-76
2020/12/14 05:20:41;;;;;;;1.42;1.33;;;6.60;99.90;;;;;;4972625;28;20175;-76
2020/12/14 05:23:09;;;;;;;2.78;1.63;;;6.60;99.90;;;;;;4973115;28;20234;-77
2020/12/14 05:25:35;;;;;;;2.97;1.45;;;6.50;99.90;;;;;;4970665;28;20191;-76
2020/12/14 05:28:11;;;;;;;3.75;2.00;;;6.50;99.90;;;;;;4978702;28;20210;-76
2020/12/14 05:30:40;;;;;;;1.63;1.52;;;6.50;99.90;;;;;;4972767;28;20171;-76
2020/12/14 05:33:07;;;;;;;2.60;1.70;;;6.40;99.90;;;;;;4971503;28;20270;-76
2020/12/14 05:35:38;;;;;;;1.83;1.73;;;6.30;99.90;;;;;;4974964;28;20182;-77
2020/12/14 05:38:24;;;;;;;2.60;1.50;;;6.40;99.90;;;;;;4985492;28;20215;-77
2020/12/14 05:40:52;;;;;;;2.50;2.30;;;6.30;99.90;;;;;;4986429;28;20171;-77
2020/12/14 05:43:23;;;;;;;2.13;1.80;;;6.30;99.90;;;;;;4972728;28;20233;-77
2020/12/14 05:45:50;;;;;;;2.65;1.45;;;6.40;99.90;;;;;;4968020;28;20314;-77
2020/12/14 05:48:33;;;;;;;2.58;1.98;;;6.30;99.90;;;;;;4964787;28;20217;-76
2020/12/14 05:51:04;;;;;;;4.53;1.95;;;6.30;99.90;;;;;;4972866;28;20191;-77
2020/12/14 05:53:40;;;;;;;5.60;1.42;;;6.40;99.90;;;;;;4972573;28;20266;-76
2020/12/14 05:56:10;;;;;;;1.65;1.50;;;6.40;99.90;;;;;;4969512;28;20550;-76
2020/12/14 05:58:38;;;;;;;3.30;1.77;;;6.40;99.90;;;;;;4968250;28;20191;-76
2020/12/14 06:01:05;;;;;;;1.70;1.52;;;6.30;99.90;;;;;;4972640;28;20562;-76
2020/12/14 06:03:31;;;;;;;1.40;1.30;;;6.40;99.90;;;;;;4972216;28;20605;-76
2020/12/14 06:06:02;;;;;;;1.98;1.25;;;6.40;99.90;;;;;;4972264;28;20665;-76
2020/12/14 06:09:05;;;;;;;1.83;1.30;;;6.40;99.90;;;;;;4972044;28;20646;-77
2020/12/14 06:11:35;;;;;;;1.42;1.25;;;6.40;99.90;;;;;;4971786;28;20211;-77
2020/12/14 06:14:02;;;;;;;2.72;1.58;;;6.50;99.90;;;;;;4972567;28;20210;-76
2020/12/14 06:16:34;;;;;;;2.40;1.60;;;6.50;99.90;;;;;;4961839;28;20212;-76
2020/12/14 06:19:01;;;;;;;2.72;1.50;;;6.50;99.90;;;;;;4971232;28;20261;-77
2020/12/14 06:21:38;;;;;;;1.55;1.20;;;6.50;99.90;;;;;;4971877;28;20574;-76
2020/12/14 06:24:06;;;;;;;2.10;1.40;;;6.50;99.90;;;;;;4972356;28;20585;-76
2020/12/14 06:26:36;;;;;;;1.90;1.52;;;6.50;99.90;;;;;;4963227;28;20560;-76
2020/12/14 06:29:02;;;;;;;1.50;1.25;;;6.50;99.90;;;;;;4971473;28;20175;-75
2020/12/14 06:31:36;;;;;;;1.50;1.40;;;6.50;99.90;;;;;;4971747;28;20309;-76
2020/12/14 06:34:05;;;;;;;4.63;1.50;;;6.60;99.90;;;;;;4970907;28;20430;-77
2020/12/14 06:36:39;;;;;;;1.65;1.55;;;6.60;99.90;;;;;;4971016;28;20214;-76
2020/12/14 06:39:30;;;;;;;1.77;1.67;;;6.50;99.90;;;;;;4972313;28;20474;-76
2020/12/14 06:42:11;;;;;;;3.15;2.20;;;6.50;99.90;;;;;;4971919;28;20230;-76
2020/12/14 06:44:43;;;;;;;2.80;1.90;;;6.50;99.90;;;;;;4971242;28;20497;-76
2020/12/14 06:47:16;;;;;;;3.00;1.75;;;6.80;99.90;;;;;;4967245;28;20499;-76
2020/12/14 06:49:44;;;;;;;1.63;1.50;;;6.90;99.90;;;;;;4982304;28;20238;-76
2020/12/14 06:52:10;;;;;;;2.42;2.22;;;7.00;99.90;;;;;;4972001;28;20265;-76
2020/12/14 06:54:43;;;;;;;1.77;1.27;;;7.10;99.90;;;;;;4969800;28;20171;-76
2020/12/14 06:57:11;;;;;;;2.47;1.35;;;7.20;99.90;;;;;;4962016;28;20444;-76
2020/12/14 06:59:37;;;;;;;1.10;1.00;;;7.30;99.90;;;;;;4953252;28;20164;-76
2020/12/14 07:02:05;;;;;;;1.63;1.20;;;7.30;99.90;;;;;;4952129;28;20632;-76
2020/12/14 07:04:33;;;;;;;1.45;1.00;;;7.30;99.90;;;;;;4952834;28;20203;-76
2020/12/14 07:07:05;;;;;;;1.52;1.20;;;7.30;99.90;;;;;;4956307;28;20730;-76
2020/12/14 07:09:39;;;;;;;1.38;1.25;;;7.50;99.90;;;;;;4956422;28;20677;-76
2020/12/14 07:12:11;;;;;;;2.10;1.42;;;7.50;99.90;;;;;;4954166;28;20266;-76
2020/12/14 07:14:47;;;;;;;3.78;1.30;;;7.50;99.90;;;;;;4956444;28;20583;-76
2020/12/14 07:17:20;;;;;;;2.03;1.33;;;7.60;99.90;;;;;;4955416;28;20258;-76
2020/12/14 07:19:47;;;;;;;1.40;1.30;;;7.60;99.90;;;;;;4956380;28;20535;-76
2020/12/14 07:22:20;;;;;;;1.35;0.70;;;7.80;99.90;;;;;;4954193;28;20262;-76
2020/12/14 07:24:58;;;;;;;1.40;0.90;;;8.00;99.90;;;;;;4956035;28;20200;-76
2020/12/14 07:27:24;;;;;;;1.70;1.10;;;8.20;99.90;;;;;;4954935;28;20238;-76
2020/12/14 07:29:50;;;;;;;1.25;1.15;;;8.40;99.90;;;;;;4955968;28;20534;-76
2020/12/14 07:32:16;;;;;;;1.90;1.00;;;8.50;99.90;;;;;;4955427;28;20212;-76
2020/12/14 07:34:53;;;;;;;1.10;1.00;;;8.50;99.90;;;;;;4976044;28;20181;-76
2020/12/14 07:37:21;;;;;;;1.98;1.48;;;8.50;99.90;;;;;;4959990;28;21217;-76
2020/12/14 07:39:47;;;;;;;0.98;0.80;;;8.50;99.90;;;;;;4955986;29;20180;-76
2020/12/14 07:42:29;;;;;;;1.25;0.85;;;8.60;99.90;;;;;;4955373;28;20240;-76
2020/12/14 07:45:15;;;;;;;0.80;0.68;;;8.50;99.90;;;;;;4955641;28;20215;-76
2020/12/14 07:47:42;;;;;;;1.13;0.80;;;8.50;99.90;;;;;;4969556;28;20215;-76
2020/12/14 07:50:21;;;;;;;1.10;0.80;;;8.70;99.90;;;;;;4989931;28;20171;-76
2020/12/14 07:52:49;;;;;;;1.15;1.02;;;8.60;99.90;;;;;;4974440;28;20215;-76
2020/12/14 07:55:22;;;;;;;0.90;0.80;;;8.70;99.90;;;;;;4974807;28;20171;-76
2020/12/14 07:57:49;;;;;;;1.50;1.02;;;8.90;99.90;;;;;;4955542;28;20777;-76
2020/12/14 08:00:23;;;;;;;0.88;0.88;;;9.00;99.90;;;;;;4967098;28;20191;-76
2020/12/14 08:02:50;;;;;;;1.42;1.33;;;9.00;99.90;;;;;;4973575;28;20783;-77
2020/12/14 08:05:19;;;;;;;1.00;0.60;;;9.00;99.90;;;;;;4974466;28;20562;-77
2020/12/14 08:07:49;;;;;;;0.90;0.80;;;9.00;99.90;;;;;;4955043;28;20447;-77
2020/12/14 08:10:17;;;;;;;1.42;0.85;;;8.90;99.90;;;;;;4974430;28;20948;-77
2020/12/14 08:12:44;;;;;;;1.92;1.00;;;8.80;99.90;;;;;;4973855;28;20270;-77
2020/12/14 08:15:19;;;;;;;1.08;0.98;;;8.80;99.90;;;;;;4974471;28;20263;-77
2020/12/14 08:17:46;;;;;;;1.65;0.70;;;8.80;99.90;;;;;;4954730;28;20241;-77
2020/12/14 08:20:30;;;;;;;0.85;0.75;;;8.80;99.90;;;;;;4955418;28;20168;-77
2020/12/14 08:22:57;;;;;;;1.13;0.82;;;8.80;99.90;;;;;;4970793;28;20213;-77
2020/12/14 08:25:27;;;;;;;3.28;1.17;;;8.80;99.90;;;;;;4964468;28;20674;-77
2020/12/14 08:27:58;;;;;;;1.80;0.80;;;8.80;99.90;;;;;;4954564;28;20216;-77
2020/12/14 08:30:25;;;;;;;3.67;0.93;;;8.90;99.90;;;;;;4971116;28;20288;-77
2020/12/14 08:33:14;;;;;;;1.05;0.65;;;8.90;99.90;;;;;;4973801;28;20222;-77
2020/12/14 08:35:41;;;;;;;1.70;1.00;;;9.00;99.90;;;;;;4957577;28;20551;-77
2020/12/14 08:38:09;;;;;;;2.17;0.60;;;9.00;99.90;;;;;;4968709;28;20509;-77
2020/12/14 08:40:35;;;;;;;1.35;1.20;;;9.00;99.90;;;;;;4970329;28;20192;-80
2020/12/14 08:43:12;;;;;;;0.60;0.53;;;9.10;99.90;;;;;;4973663;28;20239;-79
2020/12/14 08:46:04;;;;;;;0.70;0.70;;;9.10;99.90;;;;;;4973966;28;20462;-83
2020/12/14 08:48:33;;;;;;;0.70;0.60;;;9.10;99.90;;;;;;4975550;28;20447;-81
2020/12/14 08:51:12;;;;;;;1.10;0.70;;;9.20;99.90;;;;;;4967942;28;20999;-79
2020/12/14 08:53:38;;;;;;;1.93;0.63;;;9.30;99.90;;;;;;4955779;28;20289;-81
2020/12/14 08:56:24;;;;;;;1.13;0.83;;;9.40;99.90;;;;;;4971897;28;20487;-80
2020/12/14 08:58:59;;;;;;;1.13;0.87;;;9.60;99.90;;;;;;4987127;28;20440;-81
2020/12/14 09:01:27;;;;;;;2.60;0.93;;;9.60;99.90;;;;;;4973976;28;20433;-79
2020/12/14 09:04:00;;;;;;;1.17;0.82;;;9.40;99.90;;;;;;4972667;28;20460;-79
2020/12/14 09:06:37;;;;;;;0.70;0.70;;;9.50;99.90;;;;;;4968968;28;22834;-80
2020/12/14 09:09:13;;;;;;;2.63;0.93;;;9.50;99.90;;;;;;4973774;28;20777;-79
2020/12/14 09:11:42;;;;;;;1.37;1.27;;;9.40;99.90;;;;;;4972664;28;20526;-79
2020/12/14 09:14:09;;;;;;;0.90;0.80;;;9.40;99.90;;;;;;4972428;28;20422;-79
2020/12/14 09:16:36;;;;;;;1.13;0.80;;;9.30;99.90;;;;;;4953474;28;20905;-79
2020/12/14 09:19:03;;;;;;;2.77;0.77;;;9.40;99.90;;;;;;4960615;28;20428;-79
2020/12/14 09:21:31;;;;;;;1.10;0.87;;;9.50;99.90;;;;;;4972292;28;20465;-79
2020/12/14 09:24:15;;;;;;;1.20;0.80;;;9.60;99.90;;;;;;4971809;28;20458;-79
2020/12/14 09:26:42;;;;;;;1.00;0.67;;;10.10;99.90;;;;;;4961455;28;21019;-79
2020/12/14 09:29:32;;;;;;;0.70;0.50;;;10.30;99.90;;;;;;4962964;28;20461;-81
2020/12/14 09:31:58;;;;;;;1.73;1.07;;;10.40;99.90;;;;;;4955306;28;20436;-79
2020/12/14 09:34:24;;;;;;;1.83;0.90;;;10.40;99.90;;;;;;4973517;28;20936;-80
2020/12/14 09:36:51;;;;;;;1.23;0.87;;;10.30;99.90;;;;;;4965757;28;20482;-80
2020/12/14 09:39:17;;;;;;;1.60;1.20;;;10.30;99.90;;;;;;4955280;28;20203;-80
2020/12/14 09:41:46;;;;;;;2.20;1.37;;;10.40;99.90;;;;;;4955061;28;20804;-80
2020/12/14 09:44:12;;;;;;;1.20;1.10;;;10.30;99.90;;;;;;4955698;28;20499;-80
2020/12/14 09:46:37;;;;;;;2.20;1.00;;;10.30;99.90;;;;;;4973902;28;20446;-80
2020/12/14 09:49:03;;;;;;;1.20;1.00;;;10.40;99.90;;;;;;4974579;28;20265;-80
2020/12/14 09:51:29;;;;;;;1.57;1.33;;;10.40;99.90;;;;;;4972369;28;20219;-78
2020/12/14 09:53:56;;;;;;;3.00;1.00;;;10.50;99.90;;;;;;4988070;28;20179;-80
2020/12/14 09:56:22;;;;;;;1.23;0.87;;;10.60;99.90;;;;;;4967886;28;20203;-78
2020/12/14 09:58:48;;;;;;;2.37;1.60;;;10.60;99.90;;;;;;4953330;29;20418;-80
2020/12/14 10:01:14;;;;;;;3.30;1.40;;;10.60;99.90;;;;;;4956931;28;20420;-80
2020/12/14 10:03:40;;;;;;;2.43;1.63;;;10.70;99.90;;;;;;4974023;28;20505;-79
2020/12/14 10:06:09;;;;;;;1.60;1.10;;;10.70;99.90;;;;;;4959662;28;20425;-80
2020/12/14 10:08:34;;;;;;;2.87;1.37;;;10.80;99.90;;;;;;4974052;28;20433;-80
2020/12/14 10:11:00;;;;;;;1.63;1.20;;;10.90;99.90;;;;;;4973784;28;20992;-78
2020/12/14 10:13:26;;;;;;;2.90;1.47;;;10.90;99.90;;;;;;4971779;28;20357;-78
2020/12/14 10:15:52;;;;;;;2.30;1.60;;;10.90;99.90;;;;;;4970131;28;20210;-78
2020/12/14 10:18:18;;;;;;;4.20;2.17;;;11.10;99.90;;;;;;4981494;28;20269;-78
2020/12/14 10:20:45;;;;;;;1.60;1.23;;;11.00;99.90;;;;;;5003443;28;20422;-78
2020/12/14 10:23:14;;;;;;;1.83;1.50;;;11.00;99.90;;;;;;4972398;28;20561;-79
2020/12/14 10:25:41;;;;;;;3.13;1.63;;;11.00;99.90;;;;;;4962454;28;20458;-78
2020/12/14 10:28:07;;;;;;;4.33;1.20;;;11.00;99.90;;;;;;4969332;28;20482;-78
2020/12/14 10:30:34;;;;;;;1.67;1.37;;;11.20;99.90;;;;;;4972023;28;20462;-78
2020/12/14 10:33:00;;;;;;;2.70;1.43;;;11.30;99.90;;;;;;4971508;28;20297;-78
2020/12/14 10:35:25;;;;;;;1.57;1.40;;;11.30;99.90;;;;;;4961976;28;20470;-78
2020/12/14 10:37:51;;;;;;;1.50;1.30;;;11.40;99.90;;;;;;4968119;28;20209;-78
2020/12/14 10:40:17;;;;;;;3.20;1.53;;;11.60;99.90;;;;;;4970445;28;20922;-78
2020/12/14 10:42:43;;;;;;;4.77;1.30;;;11.80;99.90;;;;;;4969988;28;20315;-78
2020/12/14 10:45:09;;;;;;;2.47;1.90;;;11.90;99.90;;;;;;4968769;28;20529;-78
2020/12/14 10:47:36;;;;;;;2.37;1.20;;;12.10;99.90;;;;;;4969870;28;20442;-78
2020/12/14 10:50:03;;;;;;;3.00;1.40;;;12.20;99.90;;;;;;4972348;28;20802;-79
2020/12/14 10:52:29;;;;;;;1.87;1.30;;;12.20;99.90;;;;;;4971128;28;20859;-78
2020/12/14 10:54:55;;;;;;;1.60;1.40;;;12.20;99.90;;;;;;4971886;28;20437;-78
2020/12/14 10:57:21;;;;;;;2.00;1.47;;;12.20;99.90;;;;;;4967911;28;20207;-78
2020/12/14 10:59:46;;;;;;;2.43;1.20;;;12.20;99.90;;;;;;4971544;28;20909;-78
2020/12/14 11:02:12;;;;;;;2.70;1.30;;;12.20;99.90;;;;;;4970975;28;20621;-78
2020/12/14 11:04:38;;;;;;;3.07;1.47;;;12.40;99.90;;;;;;4965441;28;20203;-78
2020/12/14 11:07:08;;;;;;;2.03;1.83;;;12.40;99.90;;;;;;4959451;28;20463;-78
2020/12/14 11:09:35;;;;;;;2.83;1.40;;;12.40;99.90;;;;;;4971986;28;20230;-80
2020/12/14 11:12:08;;;;;;;2.97;2.70;;;12.30;99.90;;;;;;4971690;28;20522;-80
2020/12/14 11:14:36;;;;;;;1.90;1.40;;;12.30;99.90;;;;;;4972813;28;20431;-80
2020/12/14 11:17:03;;;;;;;2.27;2.17;;;12.40;99.90;;;;;;4955355;28;20466;-79
2020/12/14 11:19:29;;;;;;;5.37;1.40;;;12.40;99.90;;;;;;4971401;28;20921;-79
2020/12/14 11:21:56;;;;;;;2.40;1.23;;;12.50;99.90;;;;;;4970833;28;20446;-80
2020/12/14 11:24:22;;;;;;;3.83;1.00;;;12.70;99.90;;;;;;4970829;28;20662;-80
2020/12/14 11:26:49;;;;;;;2.37;1.40;;;12.70;99.90;;;;;;4953555;28;20851;-80
2020/12/14 11:29:15;;;;;;;1.17;0.97;;;12.80;99.90;;;;;;4972863;28;20452;-80
2020/12/14 11:31:42;;;;;;;2.10;1.23;;;12.80;99.90;;;;;;4971956;28;20446;-80
2020/12/14 11:34:08;;;;;;;2.60;1.30;;;12.90;99.90;;;;;;4970000;28;20489;-80
2020/12/14 11:36:34;;;;;;;1.30;1.00;;;12.90;99.90;;;;;;4952314;28;20448;-79
2020/12/14 11:39:03;;;;;;;1.50;1.07;;;13.00;99.90;;;;;;4968832;28;20180;-81
2020/12/14 11:41:29;;;;;;;1.23;1.13;;;13.10;99.90;;;;;;4970058;28;20470;-79
2020/12/14 11:43:55;;;;;;;1.20;0.70;;;13.20;99.90;;;;;;4971155;28;20460;-78
2020/12/14 11:46:22;;;;;;;1.50;0.97;;;13.20;99.90;;;;;;4965356;28;20937;-78
2020/12/14 11:48:48;;;;;;;1.10;0.90;;;13.10;99.90;;;;;;4971497;28;20518;-80
2020/12/14 11:51:14;;;;;;;1.73;1.17;;;13.10;99.90;;;;;;4971991;28;20513;-79
2020/12/14 11:53:39;;;;;;;2.03;1.33;;;13.20;99.90;;;;;;4975748;28;20423;-79
2020/12/14 11:56:06;;;;;;;1.40;1.00;;;13.20;99.90;;;;;;4970969;28;20255;-79
2020/12/14 11:58:31;;;;;;;1.63;1.10;;;13.00;99.90;;;;;;4969370;28;20980;-78
2020/12/14 12:00:57;;;;;;;1.80;1.17;;;13.10;99.90;;;;;;4974623;28;20434;-78
2020/12/14 12:03:23;;;;;;;2.80;1.67;;;13.00;99.90;;;;;;4974336;28;20200;-78
2020/12/14 12:05:49;;;;;;;2.30;1.17;;;12.90;99.90;;;;;;4965357;28;20718;-78
2020/12/14 12:08:15;;;;;;;1.47;0.90;;;12.90;99.90;;;;;;4966040;28;20454;-79
2020/12/14 12:10:40;;;;;;;2.30;1.30;;;12.90;99.90;;;;;;4974813;28;20171;-79
2020/12/14 12:13:07;;;;;;;2.00;1.30;;;12.70;99.90;;;;;;4973727;28;20207;-78
2020/12/14 12:15:33;;;;;;;1.60;1.50;;;12.80;99.90;;;;;;4963180;28;20188;-78
2020/12/14 12:17:59;;;;;;;2.40;1.40;;;12.70;99.90;;;;;;4964984;28;20811;-78
2020/12/14 12:20:25;;;;;;;6.13;1.90;;;12.70;99.90;;;;;;4974698;28;20417;-79
2020/12/14 12:22:56;;;;;;;1.50;1.10;;;12.70;99.90;;;;;;4973729;28;20460;-79
2020/12/14 12:25:22;;;;;;;2.43;1.23;;;12.70;99.90;;;;;;4969579;28;20517;-79
2020/12/14 12:27:48;;;;;;;1.20;0.97;;;12.70;99.90;;;;;;4995036;28;20455;-80
2020/12/14 12:30:13;;;;;;;5.37;2.20;;;12.70;99.90;;;;;;4974093;28;20974;-78
2020/12/14 12:32:39;;;;;;;2.57;1.30;;;12.60;99.90;;;;;;4973647;28;20771;-79
2020/12/14 12:35:05;;;;;;;5.13;1.07;;;12.60;99.90;;;;;;4972462;28;20226;-79
2020/12/14 12:37:31;;;;;;;2.40;1.30;;;12.60;99.90;;;;;;4959577;28;20208;-79
2020/12/14 12:40:02;;;;;;;2.90;1.63;;;12.50;99.90;;;;;;4970616;28;20211;-77
2020/12/14 12:42:31;;;;;;;5.13;1.90;;;12.50;99.90;;;;;;4973416;28;20219;-77
2020/12/14 12:44:56;;;;;;;3.10;1.77;;;12.60;99.90;;;;;;4976029;23;20529;-79
2020/12/14 12:47:22;;;;;;;1.77;1.63;;;12.60;99.90;;;;;;4954369;28;20470;-78
2020/12/14 12:49:48;;;;;;;3.53;1.33;;;12.70;99.90;;;;;;4973860;28;20242;-78
2020/12/14 12:52:14;;;;;;;2.13;1.13;;;12.50;99.90;;;;;;4973259;28;20234;-77
2020/12/14 12:54:39;;;;;;;5.80;1.57;;;12.40;99.90;;;;;;4973498;28;20897;-77
2020/12/14 12:57:05;;;;;;;1.93;1.50;;;12.20;99.90;;;;;;4967119;28;20207;-77
2020/12/14 12:59:32;;;;;;;3.67;2.20;;;12.20;99.90;;;;;;4973528;28;20179;-77
2020/12/14 13:01:58;;;;;;;1.50;1.40;;;12.10;99.90;;;;;;4972957;28;20506;-78